Forside
METAR-TAF:

METAR-TAF

Lufthavne :

Ürümqi, Kina

Breddekreds: 43-54N, længdekreds: 087-28E, højde: 654 m

Aktuelle vejr

Denne rapport blev lavet for 15 minutter siden, kl. 00:00 UTC
Vind 6 kt fra sydsydvest, varierende mellem syd og vestsydvest
Temperatur 25°C
Fugtighed 47%
Tryk 1002 hPa
Sigt 10 km eller mere
ingen skyer under 1500m og ingen cumulonimbus

METAR: ZWWW 170000Z 20003MPS 180V240 CAVOK 25/13 Q1002 NOSIG

Tid: 06:15 (00:15 UTC)

Vejrudsigter

Denne rapport blev lavet for 2 timer og 51 minutter siden, kl. 21:24 UTC
Foreløbig gælder fra 17 på 00 UTC til 17 på 24 UTC
Vind 8 kt fra syd
Sigt 10 km eller mere
ingen skyer under 1500m og ingen cumulonimbus
ændring
fra 17 på 02 UTC til 17 på 03 UTC
Vind 8 kt fra nord
ændring
fra 17 på 13 UTC til 17 på 14 UTC
Vind 8 kt fra syd

TAF: ZWWW 162124Z 1700/1724 18004MPS CAVOK TX34/1709Z TN24/1723Z BECMG 1702/1703 36004MPS BECMG 1713/1714 18004MPS

Vejrobservationer og prognoser fra mere end 4000 lufthavne (METAR og TAF).

De gule og røde prikker repræsenterer de meteorologiske stationer.

Flyt musen over at se navnet på stationen.

Så klik over at se vejr observationer og prognoser.

At skifte det kort: Klik på de grønne knapper med et sort kors for at zoome ind; på den grønne knap med en bindestreg for at zoome ud; eller på de grønne pile for tilstødende kort.


METAR-TAF: